createdAt,value
2022-10-17T00:01:08.764Z,18.10
2022-10-17T00:06:10.375Z,17.70
2022-10-17T00:08:39.386Z,19.70
2022-10-17T00:11:12.971Z,18.90
2022-10-17T00:13:42.939Z,18.30
2022-10-17T00:16:12.659Z,19.20
2022-10-17T00:18:40.796Z,18.60
2022-10-17T00:21:15.735Z,18.80
2022-10-17T00:23:43.375Z,18.10
2022-10-17T00:26:11.290Z,18.70
2022-10-17T00:28:39.681Z,18.50
2022-10-17T00:31:07.796Z,19.20
2022-10-17T00:33:36.402Z,16.60
2022-10-17T00:36:19.557Z,17.80
2022-10-17T00:38:50.229Z,18.60
2022-10-17T00:41:23.509Z,18.60
2022-10-17T00:44:03.343Z,17.50
2022-10-17T00:46:39.204Z,16.80
2022-10-17T00:49:12.580Z,17.70
2022-10-17T00:51:45.347Z,17.60
2022-10-17T00:54:16.192Z,17.40
2022-10-17T00:56:47.420Z,17.80
2022-10-17T00:59:18.813Z,18.60
2022-10-17T01:02:08.237Z,17.60
2022-10-17T01:04:44.600Z,18.00
2022-10-17T01:07:23.331Z,16.50
2022-10-17T01:09:55.935Z,17.50
2022-10-17T01:12:54.929Z,18.00
2022-10-17T01:16:10.792Z,19.10
2022-10-17T01:18:57.995Z,18.20
2022-10-17T01:21:40.999Z,18.30
2022-10-17T01:24:51.896Z,17.60
2022-10-17T01:27:39.145Z,16.80
2022-10-17T01:30:22.986Z,18.40
2022-10-17T01:33:20.904Z,17.30
2022-10-17T01:35:55.917Z,17.30
2022-10-17T01:38:35.642Z,17.50
2022-10-17T01:41:39.015Z,17.60
2022-10-17T01:44:27.276Z,17.70
2022-10-17T01:47:05.384Z,18.20
2022-10-17T01:52:35.350Z,17.30
2022-10-17T01:55:09.472Z,18.30
2022-10-17T01:57:41.979Z,18.30
2022-10-17T02:00:18.827Z,19.00
2022-10-17T02:03:05.199Z,18.90
2022-10-17T02:05:40.257Z,20.00
2022-10-17T02:08:08.632Z,19.10
2022-10-17T02:10:53.280Z,19.00
2022-10-17T02:13:46.706Z,19.80
2022-10-17T02:16:27.845Z,20.20
2022-10-17T02:19:34.935Z,19.60
2022-10-17T02:22:24.242Z,19.30
2022-10-17T02:25:01.314Z,19.10
2022-10-17T02:27:45.491Z,18.40
2022-10-17T02:30:27.439Z,19.00
2022-10-17T02:33:01.255Z,19.00
2022-10-17T02:35:35.799Z,18.70
2022-10-17T02:38:06.703Z,19.00
2022-10-17T02:40:36.256Z,17.50
2022-10-17T02:43:04.885Z,16.70
2022-10-17T02:45:36.171Z,19.20
2022-10-17T02:48:11.218Z,18.30
2022-10-17T02:50:52.494Z,18.00
2022-10-17T02:53:40.111Z,18.40
2022-10-17T02:56:18.299Z,18.10
2022-10-17T02:58:58.460Z,17.30
2022-10-17T03:01:27.387Z,17.10
2022-10-17T03:04:10.371Z,17.40
2022-10-17T03:06:39.082Z,17.80
2022-10-17T03:09:09.014Z,16.30
2022-10-17T03:11:36.853Z,17.60
2022-10-17T03:14:05.415Z,17.10
2022-10-17T03:16:33.262Z,16.20
2022-10-17T03:19:01.174Z,16.50
2022-10-17T03:21:29.354Z,19.10
2022-10-17T03:23:58.007Z,18.00
2022-10-17T03:26:26.060Z,18.40
2022-10-17T03:28:54.613Z,18.80
2022-10-17T03:31:23.306Z,18.40
2022-10-17T03:33:51.841Z,18.40
2022-10-17T03:36:21.590Z,17.50
2022-10-17T03:38:55.530Z,18.00
2022-10-17T03:41:23.720Z,17.50
2022-10-17T03:43:53.943Z,17.80
2022-10-17T03:46:22.174Z,17.60
2022-10-17T03:48:50.256Z,18.40
2022-10-17T03:51:19.715Z,18.70
2022-10-17T03:53:52.261Z,20.30
2022-10-17T03:56:23.179Z,19.40
2022-10-17T03:58:59.671Z,20.70
2022-10-17T04:01:30.007Z,19.60
2022-10-17T04:03:58.028Z,19.30
2022-10-17T04:06:28.106Z,18.20
2022-10-17T04:08:55.977Z,20.40
2022-10-17T04:11:28.799Z,19.80
2022-10-17T04:14:00.323Z,18.50
2022-10-17T04:16:28.992Z,19.40
2022-10-17T04:19:03.237Z,19.40
2022-10-17T04:21:38.703Z,20.00
2022-10-17T04:24:11.676Z,18.80
2022-10-17T04:26:52.367Z,19.20
2022-10-17T04:29:22.008Z,20.10
2022-10-17T04:31:53.061Z,19.50
2022-10-17T04:34:26.038Z,18.00
2022-10-17T04:36:53.815Z,19.90
2022-10-17T04:39:22.984Z,20.20
2022-10-17T04:41:51.837Z,19.40
2022-10-17T04:44:20.848Z,19.40
2022-10-17T04:46:51.818Z,20.70
2022-10-17T04:49:20.540Z,19.80
2022-10-17T04:51:50.739Z,19.10
2022-10-17T04:57:11.316Z,19.50
2022-10-17T04:59:39.997Z,20.40
2022-10-17T05:02:19.298Z,19.50
2022-10-17T05:04:47.146Z,19.20
2022-10-17T05:07:15.261Z,19.50
2022-10-17T05:10:00.103Z,20.30
2022-10-17T05:12:28.321Z,19.50
2022-10-17T05:14:56.087Z,19.90
2022-10-17T05:17:25.448Z,20.10
2022-10-17T05:19:53.825Z,19.30
2022-10-17T05:22:21.908Z,18.90
2022-10-17T05:24:50.616Z,19.00
2022-10-17T05:27:18.439Z,19.00
2022-10-17T05:29:46.743Z,18.80
2022-10-17T05:32:25.454Z,20.70
2022-10-17T05:34:53.231Z,20.20
2022-10-17T05:37:23.633Z,19.60
2022-10-17T05:39:52.881Z,20.20
2022-10-17T05:42:20.967Z,20.30
2022-10-17T05:44:49.132Z,18.50
2022-10-17T05:47:18.561Z,19.00
2022-10-17T05:49:51.421Z,20.30
2022-10-17T05:52:22.748Z,19.80
2022-10-17T05:54:59.999Z,19.90
2022-10-17T05:57:28.517Z,20.10
2022-10-17T05:59:57.647Z,21.30
2022-10-17T06:02:25.568Z,19.40
2022-10-17T06:04:53.672Z,19.50
2022-10-17T06:07:22.317Z,18.80
2022-10-17T06:09:50.459Z,20.90
2022-10-17T06:12:18.357Z,17.70
2022-10-17T06:14:48.358Z,19.20
2022-10-17T06:17:16.900Z,19.30
2022-10-17T06:19:45.389Z,19.20
2022-10-17T06:22:15.461Z,19.30
2022-10-17T06:24:44.193Z,18.60
2022-10-17T06:27:13.724Z,18.40
2022-10-17T06:29:42.519Z,18.70
2022-10-17T06:32:14.271Z,18.60
2022-10-17T06:34:44.767Z,17.70
2022-10-17T06:37:13.401Z,20.30
2022-10-17T06:39:43.585Z,17.50
2022-10-17T06:42:15.133Z,18.00
2022-10-17T06:45:09.943Z,17.90
2022-10-17T06:47:46.123Z,17.40
2022-10-17T06:50:27.803Z,17.60
2022-10-17T06:53:30.504Z,16.70
2022-10-17T06:56:16.195Z,19.20
2022-10-17T06:59:10.379Z,17.70
2022-10-17T07:01:46.968Z,18.60
2022-10-17T07:04:17.178Z,17.60
2022-10-17T07:06:45.005Z,17.40
2022-10-17T07:09:19.068Z,18.30
2022-10-17T07:11:48.473Z,17.10
2022-10-17T07:14:19.676Z,16.40
2022-10-17T07:16:48.123Z,19.00
2022-10-17T07:19:21.874Z,17.10
2022-10-17T07:21:50.931Z,17.00
2022-10-17T07:24:18.762Z,17.00
2022-10-17T07:26:50.494Z,15.70
2022-10-17T07:29:19.364Z,17.00
2022-10-17T07:31:57.905Z,16.00
2022-10-17T07:34:28.401Z,17.50
2022-10-17T07:36:56.191Z,15.90
2022-10-17T07:39:25.048Z,16.00
2022-10-17T07:41:52.755Z,17.60
2022-10-17T07:44:20.560Z,14.90
2022-10-17T07:46:51.283Z,15.40
2022-10-17T07:49:19.736Z,14.90
2022-10-17T07:51:49.067Z,15.50
2022-10-17T07:54:17.547Z,14.80
2022-10-17T07:56:51.514Z,15.50
2022-10-17T07:59:22.102Z,15.40
2022-10-17T08:01:49.857Z,16.70
2022-10-17T08:04:17.606Z,15.60
2022-10-17T08:06:45.623Z,15.50
2022-10-17T08:09:13.413Z,15.40
2022-10-17T08:11:41.236Z,15.90
2022-10-17T08:14:10.212Z,14.10
2022-10-17T08:16:38.222Z,15.10
2022-10-17T08:21:42.073Z,14.50
2022-10-17T08:24:11.228Z,15.10
2022-10-17T08:26:43.510Z,15.30
2022-10-17T08:29:16.974Z,15.20
2022-10-17T08:31:47.850Z,16.00
2022-10-17T08:34:17.756Z,14.90
2022-10-17T08:36:45.542Z,14.30
2022-10-17T08:39:16.572Z,13.10
2022-10-17T08:42:12.281Z,12.70
2022-10-17T08:45:00.238Z,13.40
2022-10-17T08:47:35.796Z,14.70
2022-10-17T08:50:08.615Z,14.80
2022-10-17T08:52:51.697Z,14.40
2022-10-17T08:55:45.600Z,15.00
2022-10-17T08:58:26.402Z,14.60
2022-10-17T09:01:13.704Z,13.70
2022-10-17T09:04:06.056Z,14.00
2022-10-17T09:06:48.221Z,13.90
2022-10-17T09:09:40.646Z,12.70
2022-10-17T09:12:18.160Z,12.50
2022-10-17T09:15:12.634Z,13.70
2022-10-17T09:17:53.026Z,13.70
2022-10-17T09:21:02.213Z,13.10
2022-10-17T09:24:03.979Z,13.40
2022-10-17T09:26:41.550Z,13.10
